createdAt,value
2018-07-27T00:00:13.756Z,73.90
2018-07-27T00:02:42.167Z,74.50
2018-07-27T00:05:10.524Z,74.40
2018-07-27T00:07:38.884Z,74.40
2018-07-27T00:10:07.585Z,74.10
2018-07-27T00:12:36.052Z,74.20
2018-07-27T00:17:32.496Z,73.50
2018-07-27T00:22:28.941Z,73.70
2018-07-27T00:29:53.480Z,72.60
2018-07-27T00:34:49.964Z,73.80
2018-07-27T00:37:18.360Z,73.40
2018-07-27T00:39:46.723Z,73.90
2018-07-27T00:42:15.089Z,73.70
2018-07-27T00:44:43.439Z,73.40
2018-07-27T00:47:11.829Z,74.10
2018-07-27T00:52:08.286Z,75.10
2018-07-27T00:57:04.756Z,75.80
2018-07-27T00:59:33.275Z,75.80
2018-07-27T01:02:01.648Z,75.50
2018-07-27T01:04:30.008Z,75.40
2018-07-27T01:07:01.448Z,75.00
2018-07-27T01:09:29.841Z,75.10
2018-07-27T01:11:58.283Z,74.90
2018-07-27T01:14:26.644Z,75.20
2018-07-27T01:16:55.268Z,76.60
2018-07-27T01:19:23.620Z,77.60
2018-07-27T01:21:52.068Z,78.20
2018-07-27T01:24:20.440Z,77.70
2018-07-27T01:26:48.795Z,77.40
2018-07-27T01:29:18.712Z,77.90
2018-07-27T01:31:47.127Z,78.30
2018-07-27T01:34:15.531Z,79.80
2018-07-27T01:36:43.927Z,80.20
2018-07-27T01:39:14.489Z,80.00
2018-07-27T01:41:43.544Z,79.70
2018-07-27T01:44:12.875Z,79.60
2018-07-27T01:49:10.453Z,79.60
2018-07-27T01:51:38.842Z,79.20
2018-07-27T01:54:07.323Z,79.00
2018-07-27T01:56:35.787Z,78.80
2018-07-27T02:01:32.440Z,79.70
2018-07-27T02:06:28.909Z,80.00
2018-07-27T02:08:57.311Z,80.20
2018-07-27T02:11:25.720Z,80.00
2018-07-27T02:13:54.224Z,79.40
2018-07-27T02:16:22.575Z,79.10
2018-07-27T02:18:50.976Z,79.50
2018-07-27T02:21:19.329Z,80.20
2018-07-27T02:23:47.724Z,81.30
2018-07-27T02:26:16.089Z,81.60
2018-07-27T02:28:44.471Z,82.10
2018-07-27T02:31:12.827Z,82.70
2018-07-27T02:33:41.225Z,82.70
2018-07-27T02:36:09.670Z,82.50
2018-07-27T02:38:38.073Z,82.60
2018-07-27T02:41:06.516Z,82.60
2018-07-27T02:46:02.996Z,82.20
2018-07-27T02:48:31.489Z,82.30
2018-07-27T02:50:59.920Z,82.40
2018-07-27T02:53:28.325Z,83.20
2018-07-27T02:55:56.704Z,82.50
2018-07-27T02:58:25.130Z,81.90
2018-07-27T03:00:53.474Z,82.20
2018-07-27T03:03:21.886Z,82.20
2018-07-27T03:05:50.249Z,81.90
2018-07-27T03:08:18.668Z,82.50
2018-07-27T03:10:47.036Z,83.20
2018-07-27T03:13:15.417Z,83.30
2018-07-27T03:15:43.811Z,83.80
2018-07-27T03:18:12.201Z,83.20
2018-07-27T03:20:40.553Z,84.10
2018-07-27T03:23:08.962Z,84.60
2018-07-27T03:25:37.309Z,85.00
2018-07-27T03:28:05.761Z,85.70
2018-07-27T03:30:34.146Z,85.80
2018-07-27T03:33:02.529Z,86.00
2018-07-27T03:35:30.889Z,86.20
2018-07-27T03:37:59.277Z,86.10
2018-07-27T03:40:27.635Z,86.00
2018-07-27T03:45:24.093Z,86.30
2018-07-27T03:50:20.545Z,87.50
2018-07-27T03:55:17.041Z,87.80
2018-07-27T03:57:45.504Z,88.10
2018-07-27T04:00:14.353Z,87.70
2018-07-27T04:02:43.274Z,87.50
2018-07-27T04:05:11.669Z,87.50
2018-07-27T04:07:40.032Z,87.90
2018-07-27T04:12:36.480Z,87.80
2018-07-27T04:15:05.413Z,87.60
2018-07-27T04:17:33.699Z,87.70
2018-07-27T04:20:02.112Z,88.00
2018-07-27T04:22:30.473Z,88.50
2018-07-27T04:24:58.851Z,88.30
2018-07-27T04:27:27.219Z,87.70
2018-07-27T04:29:55.627Z,87.10
2018-07-27T04:32:24.017Z,87.00
2018-07-27T04:37:20.504Z,87.80
2018-07-27T04:39:48.895Z,86.80
2018-07-27T04:42:17.280Z,87.30
2018-07-27T04:44:45.653Z,86.90
2018-07-27T04:47:14.144Z,86.20
2018-07-27T04:49:42.549Z,85.80
2018-07-27T04:52:10.898Z,85.40
2018-07-27T04:54:39.360Z,85.40
2018-07-27T04:57:07.777Z,85.30
2018-07-27T04:59:36.165Z,85.30
2018-07-27T05:02:04.606Z,85.50
2018-07-27T05:04:33.019Z,84.70
2018-07-27T05:07:01.383Z,84.90
2018-07-27T05:09:29.772Z,84.20
2018-07-27T05:11:58.124Z,84.10
2018-07-27T05:14:26.564Z,84.90
2018-07-27T05:16:54.920Z,84.90
2018-07-27T05:21:51.379Z,83.80
2018-07-27T05:24:19.757Z,83.60
2018-07-27T05:26:48.156Z,84.10
2018-07-27T05:29:16.553Z,84.90
2018-07-27T05:31:44.933Z,85.00
2018-07-27T05:34:13.314Z,83.70
2018-07-27T05:36:41.682Z,82.50
2018-07-27T05:39:11.572Z,80.90
2018-07-27T05:41:39.999Z,79.00
2018-07-27T05:44:08.860Z,78.00
2018-07-27T05:46:37.212Z,78.30
2018-07-27T05:51:33.721Z,77.10
2018-07-27T05:54:02.149Z,75.60
2018-07-27T06:01:26.702Z,76.20
2018-07-27T06:03:55.136Z,75.20
2018-07-27T06:06:23.510Z,74.70
2018-07-27T06:08:51.991Z,73.80
2018-07-27T06:11:20.312Z,72.90
2018-07-27T06:13:48.757Z,71.50
2018-07-27T06:16:17.137Z,71.30
2018-07-27T06:18:45.524Z,71.10
2018-07-27T06:23:42.071Z,69.70
2018-07-27T06:26:10.404Z,68.90
2018-07-27T06:28:38.850Z,67.00
2018-07-27T06:33:35.340Z,65.90
2018-07-27T06:36:03.772Z,64.40
2018-07-27T06:38:32.172Z,64.00
2018-07-27T06:41:00.591Z,64.30
2018-07-27T06:43:28.966Z,64.10
2018-07-27T06:45:57.352Z,62.50
2018-07-27T06:48:25.692Z,63.20
2018-07-27T06:50:54.291Z,63.10
2018-07-27T06:53:22.640Z,63.10
2018-07-27T06:55:51.019Z,62.50
2018-07-27T06:58:19.396Z,62.10
2018-07-27T07:00:47.807Z,62.30
2018-07-27T07:03:16.163Z,62.00
2018-07-27T07:05:44.540Z,61.10
2018-07-27T07:08:12.891Z,62.50
2018-07-27T07:10:41.349Z,63.10
2018-07-27T07:13:09.707Z,62.20
2018-07-27T07:15:38.148Z,62.20
2018-07-27T07:18:06.756Z,61.30
2018-07-27T07:23:03.213Z,59.20
2018-07-27T07:27:59.729Z,57.10
2018-07-27T07:30:28.158Z,57.20
2018-07-27T07:32:56.538Z,56.80
2018-07-27T07:35:24.927Z,56.70
2018-07-27T07:37:53.298Z,56.90
2018-07-27T07:40:21.696Z,55.30
2018-07-27T07:42:50.069Z,55.80
2018-07-27T07:45:18.500Z,55.80
2018-07-27T07:47:46.896Z,55.30
2018-07-27T07:50:15.291Z,54.70
2018-07-27T07:52:43.640Z,53.90
2018-07-27T07:55:12.019Z,53.90
2018-07-27T07:57:40.360Z,54.40
2018-07-27T08:00:09.072Z,54.50
2018-07-27T08:02:37.437Z,54.30
2018-07-27T08:05:05.896Z,53.00
2018-07-27T08:07:34.261Z,51.70
2018-07-27T08:10:02.696Z,50.30
2018-07-27T08:12:31.062Z,50.30
2018-07-27T08:14:59.485Z,50.20
2018-07-27T08:17:27.841Z,51.30
2018-07-27T08:19:56.238Z,50.00
2018-07-27T08:22:24.600Z,49.00
2018-07-27T08:24:53.216Z,49.00
2018-07-27T08:27:21.599Z,47.50
2018-07-27T08:32:18.035Z,47.60
2018-07-27T08:34:46.420Z,46.30
2018-07-27T08:37:14.783Z,46.40
2018-07-27T08:39:43.687Z,46.40
2018-07-27T08:42:12.067Z,46.40
2018-07-27T08:44:41.472Z,44.60
2018-07-27T08:47:09.910Z,44.30
2018-07-27T08:49:38.320Z,43.80
2018-07-27T08:52:06.717Z,43.60
2018-07-27T08:54:35.072Z,43.70
2018-07-27T08:57:03.553Z,44.30
2018-07-27T08:59:31.936Z,43.60
2018-07-27T09:02:00.340Z,43.50
2018-07-27T09:04:28.708Z,43.00
2018-07-27T09:06:57.096Z,43.80
2018-07-27T09:09:25.461Z,44.40
2018-07-27T09:11:53.875Z,44.70
2018-07-27T09:14:22.263Z,44.40
2018-07-27T09:16:50.639Z,43.60
2018-07-27T09:19:18.976Z,43.80
2018-07-27T09:21:47.365Z,43.80
2018-07-27T09:24:15.845Z,45.30
2018-07-27T09:26:44.132Z,44.20
2018-07-27T09:29:12.488Z,43.20
2018-07-27T09:31:40.868Z,43.40
2018-07-27T09:34:09.273Z,44.00
2018-07-27T09:36:37.661Z,44.50
2018-07-27T09:39:08.795Z,44.70
2018-07-27T09:41:37.193Z,45.50
2018-07-27T09:44:05.628Z,43.70
2018-07-27T09:46:34.493Z,44.40
2018-07-27T09:49:02.861Z,42.60
2018-07-27T09:51:31.290Z,41.60
2018-07-27T09:53:59.653Z,42.40
2018-07-27T09:56:28.064Z,41.60
2018-07-27T09:58:56.456Z,41.70
2018-07-27T10:01:26.393Z,42.90
2018-07-27T10:06:23.391Z,41.90
2018-07-27T10:08:51.755Z,41.20
2018-07-27T10:11:20.416Z,40.40
2018-07-27T10:13:48.789Z,41.90
2018-07-27T10:16:17.200Z,41.90
2018-07-27T10:18:45.596Z,42.40
2018-07-27T10:21:13.975Z,41.90
2018-07-27T10:23:42.339Z,41.90
2018-07-27T10:26:10.770Z,41.00
2018-07-27T10:28:39.247Z,41.10
2018-07-27T10:31:07.667Z,39.20
2018-07-27T10:33:36.182Z,38.90
2018-07-27T10:36:04.593Z,40.00
2018-07-27T10:38:33.067Z,40.30
2018-07-27T10:41:01.903Z,41.70
2018-07-27T10:45:58.511Z,40.50
2018-07-27T10:48:26.948Z,41.30
2018-07-27T10:55:51.824Z,39.80
2018-07-27T10:58:20.399Z,39.60
2018-07-27T11:00:48.853Z,40.90
2018-07-27T11:03:17.244Z,40.60
2018-07-27T11:05:45.619Z,42.30
2018-07-27T11:08:14.082Z,41.20
2018-07-27T11:10:42.613Z,40.20
2018-07-27T11:13:11.062Z,40.70
2018-07-27T11:15:39.537Z,41.80
2018-07-27T11:20:38.902Z,40.60
2018-07-27T11:23:07.320Z,40.60
2018-07-27T11:25:37.016Z,40.70
2018-07-27T11:28:05.459Z,41.70
2018-07-27T11:30:33.838Z,40.00
2018-07-27T11:33:02.216Z,40.80
2018-07-27T11:35:30.577Z,39.80
2018-07-27T11:37:58.997Z,40.50
2018-07-27T11:40:27.365Z,39.70
2018-07-27T11:42:55.844Z,39.30
2018-07-27T11:45:24.343Z,38.80
2018-07-27T11:47:52.801Z,39.70
2018-07-27T11:50:21.168Z,40.70
2018-07-27T11:52:49.588Z,40.10
2018-07-27T11:55:17.964Z,38.20
2018-07-27T11:57:46.373Z,40.50
2018-07-27T12:00:14.745Z,40.40
2018-07-27T12:02:43.147Z,39.90
2018-07-27T12:05:11.497Z,39.30
2018-07-27T12:07:39.896Z,38.50
2018-07-27T12:10:08.307Z,38.80
2018-07-27T12:12:36.807Z,38.80
2018-07-27T12:15:05.767Z,38.20
2018-07-27T12:17:33.928Z,37.60
2018-07-27T12:20:02.273Z,38.10
2018-07-27T12:22:30.652Z,38.00
2018-07-27T12:24:59.064Z,38.30
2018-07-27T12:27:27.445Z,38.80
2018-07-27T12:29:55.793Z,39.70
2018-07-27T12:32:24.232Z,39.50
2018-07-27T12:39:48.976Z,37.60
2018-07-27T12:42:17.369Z,37.00
2018-07-27T12:44:45.775Z,36.90
2018-07-27T12:47:14.152Z,37.50
2018-07-27T12:49:42.509Z,37.80
2018-07-27T12:52:10.880Z,37.30
2018-07-27T12:54:39.257Z,37.70
2018-07-27T12:57:07.635Z,36.20
2018-07-27T12:59:36.281Z,36.50
2018-07-27T13:02:04.717Z,37.80
2018-07-27T13:04:33.064Z,37.90
2018-07-27T13:07:01.404Z,38.20
2018-07-27T13:09:29.816Z,40.00
2018-07-27T13:11:58.192Z,39.20
2018-07-27T13:14:26.600Z,39.30
2018-07-27T13:16:54.958Z,38.50
2018-07-27T13:21:51.535Z,38.30
2018-07-27T13:24:19.885Z,37.70
2018-07-27T13:26:48.249Z,37.80
2018-07-27T13:29:16.641Z,38.50
2018-07-27T13:31:48.935Z,36.70
2018-07-27T13:34:41.171Z,36.00
2018-07-27T13:37:09.719Z,38.10
2018-07-27T13:39:38.839Z,38.30
2018-07-27T13:42:08.027Z,37.20
2018-07-27T13:44:37.677Z,37.20
2018-07-27T13:47:06.635Z,37.10
2018-07-27T13:49:35.105Z,37.10
2018-07-27T13:52:03.505Z,36.50
2018-07-27T13:54:32.778Z,36.70
2018-07-27T13:57:01.384Z,36.40
2018-07-27T13:59:29.825Z,37.70
2018-07-27T14:01:58.303Z,38.50
2018-07-27T14:04:26.715Z,39.50
2018-07-27T14:06:56.224Z,39.60
2018-07-27T14:09:24.649Z,39.90
2018-07-27T14:11:53.036Z,40.20
2018-07-27T14:14:21.491Z,40.40
2018-07-27T14:16:49.839Z,40.30
2018-07-27T14:19:18.879Z,41.00
2018-07-27T14:21:47.421Z,41.60
2018-07-27T14:24:15.861Z,40.90
2018-07-27T14:26:44.271Z,41.20
2018-07-27T14:29:12.689Z,41.30
2018-07-27T14:36:37.472Z,41.10
2018-07-27T14:39:09.186Z,42.10
2018-07-27T14:41:37.585Z,41.50
2018-07-27T14:44:06.038Z,40.60
2018-07-27T14:56:27.109Z,41.10
2018-07-27T14:58:55.495Z,41.60
2018-07-27T15:03:51.960Z,41.00
2018-07-27T15:11:16.584Z,40.80
2018-07-27T15:13:44.980Z,40.70
2018-07-27T15:16:13.415Z,40.30
2018-07-27T15:18:41.756Z,39.40
2018-07-27T15:21:10.112Z,41.50
2018-07-27T15:23:38.529Z,40.30
2018-07-27T15:26:06.880Z,40.20
2018-07-27T15:28:35.552Z,39.80
2018-07-27T15:31:03.961Z,39.40
2018-07-27T15:33:32.728Z,39.80
2018-07-27T15:38:29.160Z,41.30
2018-07-27T15:40:57.632Z,41.60
2018-07-27T15:43:25.976Z,41.60
2018-07-27T15:45:54.364Z,42.20
2018-07-27T15:48:22.782Z,42.00
2018-07-27T15:50:51.107Z,42.40
2018-07-27T15:53:19.452Z,42.20
2018-07-27T15:58:15.900Z,40.80
2018-07-27T16:03:12.340Z,39.60
2018-07-27T16:05:40.748Z,39.80
2018-07-27T16:08:09.144Z,39.60
2018-07-27T16:10:37.525Z,39.60
2018-07-27T16:13:05.904Z,39.60
2018-07-27T16:15:34.315Z,39.80
2018-07-27T16:18:02.676Z,39.90
2018-07-27T16:20:31.124Z,39.10
2018-07-27T16:25:27.864Z,38.10
2018-07-27T16:27:56.236Z,38.50
2018-07-27T16:30:24.636Z,39.00
2018-07-27T16:35:21.273Z,38.20
2018-07-27T16:37:49.629Z,37.20
2018-07-27T16:40:18.051Z,38.80
2018-07-27T16:45:14.493Z,37.90
2018-07-27T16:47:42.851Z,38.80
2018-07-27T16:50:11.268Z,38.00
2018-07-27T16:55:07.736Z,38.50
2018-07-27T16:57:36.092Z,38.70
2018-07-27T17:00:04.557Z,38.30
2018-07-27T17:02:32.976Z,37.90
2018-07-27T17:05:01.364Z,36.90
2018-07-27T17:07:29.721Z,37.10
2018-07-27T17:12:26.408Z,37.70
2018-07-27T17:14:54.830Z,36.50
2018-07-27T17:17:23.291Z,36.90
2018-07-27T17:19:51.692Z,36.40
2018-07-27T17:22:20.060Z,36.40
2018-07-27T17:24:48.469Z,36.60
2018-07-27T17:27:16.816Z,36.20
2018-07-27T17:29:45.238Z,37.80
2018-07-27T17:32:16.032Z,36.90
2018-07-27T17:34:44.441Z,36.80
2018-07-27T17:37:12.796Z,36.50
2018-07-27T17:39:41.209Z,36.80
2018-07-27T17:42:09.590Z,37.90
2018-07-27T17:44:37.931Z,37.10
2018-07-27T17:47:06.787Z,36.40
2018-07-27T17:49:35.152Z,35.90
2018-07-27T17:54:31.606Z,36.50
2018-07-27T17:56:59.992Z,37.00
2018-07-27T17:59:28.337Z,36.80
2018-07-27T18:01:56.724Z,37.10
2018-07-27T18:04:25.067Z,36.90
2018-07-27T18:06:53.512Z,37.30
2018-07-27T18:09:21.876Z,37.30
2018-07-27T18:14:18.382Z,38.50
2018-07-27T18:16:46.780Z,38.50
2018-07-27T18:19:15.151Z,38.90
2018-07-27T18:21:44.548Z,39.40
2018-07-27T18:24:12.913Z,39.80
2018-07-27T18:26:41.299Z,40.30
2018-07-27T18:29:09.673Z,40.60
2018-07-27T18:31:38.164Z,41.20
2018-07-27T18:34:06.560Z,41.40
2018-07-27T18:36:34.961Z,41.90
2018-07-27T18:39:03.459Z,42.00
2018-07-27T18:41:31.857Z,42.10
2018-07-27T18:44:00.212Z,42.10
2018-07-27T18:46:28.592Z,42.70
2018-07-27T18:48:56.940Z,42.80
2018-07-27T18:51:25.348Z,42.90
2018-07-27T18:53:53.936Z,43.30
2018-07-27T18:56:22.366Z,43.70
2018-07-27T18:58:50.989Z,44.30
2018-07-27T19:01:19.411Z,44.10
2018-07-27T19:03:47.779Z,44.70
2018-07-27T19:08:44.262Z,44.00
2018-07-27T19:11:12.668Z,44.40
2018-07-27T19:13:41.042Z,44.60
2018-07-27T19:16:10.317Z,45.00
2018-07-27T19:18:38.959Z,45.20
2018-07-27T19:21:07.368Z,45.90
2018-07-27T19:23:35.771Z,46.80
2018-07-27T19:26:04.151Z,47.10
2018-07-27T19:28:32.506Z,47.70
2018-07-27T19:33:28.993Z,48.70
2018-07-27T19:35:57.384Z,49.10
2018-07-27T19:38:25.797Z,49.60
2018-07-27T19:40:54.216Z,49.80
2018-07-27T19:43:22.580Z,50.60
2018-07-27T19:45:50.960Z,50.30
2018-07-27T19:50:47.416Z,50.90
2018-07-27T19:53:15.818Z,51.20
2018-07-27T19:55:44.188Z,51.40
2018-07-27T19:58:12.611Z,51.40
2018-07-27T20:00:40.984Z,51.70
2018-07-27T20:03:09.371Z,51.80
2018-07-27T20:05:37.765Z,52.00
2018-07-27T20:08:06.172Z,52.20
2018-07-27T20:10:34.565Z,52.20
2018-07-27T20:13:02.999Z,52.50
2018-07-27T20:15:31.383Z,52.40
2018-07-27T20:17:59.765Z,52.50
2018-07-27T20:20:28.144Z,52.80
2018-07-27T20:22:56.528Z,53.10
2018-07-27T20:25:24.924Z,53.20
2018-07-27T20:27:53.316Z,53.40
2018-07-27T20:30:21.689Z,53.80
2018-07-27T20:32:50.084Z,53.90
2018-07-27T20:35:18.449Z,54.20
2018-07-27T20:37:46.840Z,54.80
2018-07-27T20:40:15.209Z,54.80
2018-07-27T20:42:43.596Z,55.00
2018-07-27T20:45:11.943Z,55.20
2018-07-27T20:47:40.333Z,55.40
2018-07-27T20:50:09.428Z,55.60
2018-07-27T20:52:37.817Z,55.80
2018-07-27T20:55:06.178Z,56.50
2018-07-27T20:57:34.572Z,56.70
2018-07-27T21:00:02.981Z,56.70
2018-07-27T21:02:31.389Z,56.70
2018-07-27T21:04:59.869Z,57.10
2018-07-27T21:07:28.252Z,57.00
2018-07-27T21:09:56.668Z,57.20
2018-07-27T21:12:25.053Z,57.30
2018-07-27T21:14:53.441Z,57.30
2018-07-27T21:19:49.900Z,57.50
2018-07-27T21:22:18.292Z,58.10
2018-07-27T21:24:46.643Z,58.00
2018-07-27T21:27:15.044Z,58.30
2018-07-27T21:32:11.546Z,59.70
2018-07-27T21:34:39.891Z,60.00
2018-07-27T21:37:08.269Z,59.90
2018-07-27T21:39:36.740Z,59.80
2018-07-27T21:44:33.305Z,59.90
2018-07-27T21:47:01.701Z,59.80
2018-07-27T21:49:30.057Z,59.80
2018-07-27T21:51:58.408Z,60.20
2018-07-27T21:54:26.788Z,60.50
2018-07-27T21:56:55.138Z,60.40
2018-07-27T21:59:23.520Z,61.40
2018-07-27T22:01:51.900Z,62.40
2018-07-27T22:04:20.323Z,62.60
2018-07-27T22:06:48.692Z,64.10
2018-07-27T22:09:17.112Z,64.30
2018-07-27T22:11:45.480Z,64.50
2018-07-27T22:14:13.868Z,63.80
2018-07-27T22:16:42.232Z,63.60
2018-07-27T22:19:10.656Z,63.60
2018-07-27T22:21:39.041Z,64.10
2018-07-27T22:24:07.461Z,65.00
2018-07-27T22:26:35.835Z,65.80
2018-07-27T22:29:04.277Z,66.80
2018-07-27T22:31:32.664Z,67.20
2018-07-27T22:34:01.308Z,68.30
2018-07-27T22:36:29.660Z,68.00
2018-07-27T22:38:58.059Z,67.60
2018-07-27T22:41:26.420Z,67.50
2018-07-27T22:43:54.825Z,68.00
2018-07-27T22:46:23.176Z,69.00
2018-07-27T22:48:51.558Z,67.80
2018-07-27T22:51:19.945Z,68.00
2018-07-27T22:56:16.416Z,67.90
2018-07-27T22:58:44.804Z,68.00
2018-07-27T23:01:13.193Z,68.10
2018-07-27T23:03:41.619Z,68.70
2018-07-27T23:06:09.977Z,68.90
2018-07-27T23:08:38.396Z,68.50
2018-07-27T23:13:34.945Z,68.90
2018-07-27T23:16:03.385Z,69.30
2018-07-27T23:18:31.776Z,70.10
2018-07-27T23:21:00.239Z,71.30
2018-07-27T23:23:28.620Z,71.60
2018-07-27T23:25:56.967Z,71.00
2018-07-27T23:28:25.356Z,70.90
2018-07-27T23:30:53.712Z,71.00
2018-07-27T23:33:22.120Z,71.20
2018-07-27T23:35:50.472Z,72.10
2018-07-27T23:38:18.871Z,71.10
2018-07-27T23:40:47.217Z,71.20
2018-07-27T23:43:15.606Z,72.00
2018-07-27T23:45:43.952Z,72.20
2018-07-27T23:48:12.333Z,72.50
2018-07-27T23:50:40.804Z,73.50
2018-07-27T23:53:09.212Z,74.10
2018-07-27T23:55:37.589Z,73.90
2018-07-27T23:58:06.000Z,74.00
